sensor_id;sensor_type;location;lat;lon;timestamp;temperature;humidity
59703;DHT22;45570;48.782;8.332;2022-12-29T10:52:35;16.10;99.90
59703;DHT22;45570;48.782;8.332;2022-12-29T10:55:13;15.70;99.90
59703;DHT22;45570;48.782;8.332;2022-12-29T10:57:44;15.50;99.90
59703;DHT22;45570;48.782;8.332;2022-12-29T11:00:15;15.10;99.90
59703;DHT22;45570;48.782;8.332;2022-12-29T11:02:56;14.80;99.90
59703;DHT22;45570;48.782;8.332;2022-12-29T11:05:31;14.60;99.90
59703;DHT22;45570;48.782;8.332;2022-12-29T11:08:09;14.50;99.90
59703;DHT22;45570;48.782;8.332;2022-12-29T11:10:40;14.50;99.90
59703;DHT22;45570;48.782;8.332;2022-12-29T11:13:15;14.50;99.90
59703;DHT22;45570;48.782;8.332;2022-12-29T11:15:45;14.40;99.90
59703;DHT22;45570;48.782;8.332;2022-12-29T11:18:22;14.30;99.90
59703;DHT22;45570;48.782;8.332;2022-12-29T11:20:52;14.20;99.90
59703;DHT22;45570;48.782;8.332;2022-12-29T11:23:26;14.20;99.90
59703;DHT22;45570;48.782;8.332;2022-12-29T11:26:17;13.90;99.90
59703;DHT22;45570;48.782;8.332;2022-12-29T11:29:03;13.80;99.90
59703;DHT22;45570;48.782;8.332;2022-12-29T11:31:40;13.80;99.90
59703;DHT22;45570;48.782;8.332;2022-12-29T11:34:17;13.90;99.90
59703;DHT22;45570;48.782;8.332;2022-12-29T11:36:46;14.50;99.90
59703;DHT22;45570;48.782;8.332;2022-12-29T11:39:30;15.10;99.90
59703;DHT22;45570;48.782;8.332;2022-12-29T11:42:01;15.80;99.90
59703;DHT22;45570;48.782;8.332;2022-12-29T11:44:36;15.70;99.90
59703;DHT22;45570;48.782;8.332;2022-12-29T11:47:09;14.90;99.90
59703;DHT22;45570;48.782;8.332;2022-12-29T11:49:40;14.50;99.90
59703;DHT22;45570;48.782;8.332;2022-12-29T11:52:09;14.20;99.90
59703;DHT22;45570;48.782;8.332;2022-12-29T11:54:39;14.20;99.90
59703;DHT22;45570;48.782;8.332;2022-12-29T11:57:10;14.10;99.90
59703;DHT22;45570;48.782;8.332;2022-12-29T11:59:42;13.80;99.90
59703;DHT22;45570;48.782;8.332;2022-12-29T12:02:37;13.70;99.90
59703;DHT22;45570;48.782;8.332;2022-12-29T12:05:19;13.60;99.90
59703;DHT22;45570;48.782;8.332;2022-12-29T12:07:54;13.60;99.90
59703;DHT22;45570;48.782;8.332;2022-12-29T12:10:28;13.70;99.90
59703;DHT22;45570;48.782;8.332;2022-12-29T12:13:15;13.70;99.90
59703;DHT22;45570;48.782;8.332;2022-12-29T12:15:51;13.70;99.90
59703;DHT22;45570;48.782;8.332;2022-12-29T12:18:32;13.70;99.90
59703;DHT22;45570;48.782;8.332;2022-12-29T12:21:06;13.80;99.90
59703;DHT22;45570;48.782;8.332;2022-12-29T12:23:38;14.10;99.90
59703;DHT22;45570;48.782;8.332;2022-12-29T12:26:13;14.40;99.90
59703;DHT22;45570;48.782;8.332;2022-12-29T12:28:49;14.40;99.90
59703;DHT22;45570;48.782;8.332;2022-12-29T12:31:33;14.40;99.90
59703;DHT22;45570;48.782;8.332;2022-12-29T12:34:08;15.10;99.90
59703;DHT22;45570;48.782;8.332;2022-12-29T12:39:41;15.30;99.90
59703;DHT22;45570;48.782;8.332;2022-12-29T12:42:24;15.30;99.90
59703;DHT22;45570;48.782;8.332;2022-12-29T12:45:08;15.30;99.90
59703;DHT22;45570;48.782;8.332;2022-12-29T12:47:53;15.10;99.90
59703;DHT22;45570;48.782;8.332;2022-12-29T12:50:32;14.60;99.90
59703;DHT22;45570;48.782;8.332;2022-12-29T12:53:13;14.30;99.90
59703;DHT22;45570;48.782;8.332;2022-12-29T12:55:56;14.10;99.90
59703;DHT22;45570;48.782;8.332;2022-12-29T12:58:35;13.90;99.90
59703;DHT22;45570;48.782;8.332;2022-12-29T13:01:23;13.90;99.90
59703;DHT22;45570;48.782;8.332;2022-12-29T13:04:08;13.80;99.90
59703;DHT22;45570;48.782;8.332;2022-12-29T13:06:46;13.80;99.90
59703;DHT22;45570;48.782;8.332;2022-12-29T13:09:38;13.80;99.90
59703;DHT22;45570;48.782;8.332;2022-12-29T13:12:16;13.70;99.90
59703;DHT22;45570;48.782;8.332;2022-12-29T13:14:59;13.70;99.90
59703;DHT22;45570;48.782;8.332;2022-12-29T13:17:34;13.70;99.90
59703;DHT22;45570;48.782;8.332;2022-12-29T13:20:17;13.90;99.90
59703;DHT22;45570;48.782;8.332;2022-12-29T13:22:53;13.90;99.90
59703;DHT22;45570;48.782;8.332;2022-12-29T13:25:31;13.80;99.90
59703;DHT22;45570;48.782;8.332;2022-12-29T13:28:01;13.80;99.90
59703;DHT22;45570;48.782;8.332;2022-12-29T13:30:35;13.60;99.90
59703;DHT22;45570;48.782;8.332;2022-12-29T13:33:12;13.50;99.90
59703;DHT22;45570;48.782;8.332;2022-12-29T13:35:56;13.30;99.90
59703;DHT22;45570;48.782;8.332;2022-12-29T13:38:32;13.30;99.90
59703;DHT22;45570;48.782;8.332;2022-12-29T13:41:06;13.20;99.90
59703;DHT22;45570;48.782;8.332;2022-12-29T13:43:39;13.20;99.90
59703;DHT22;45570;48.782;8.332;2022-12-29T13:46:14;13.20;99.90
59703;DHT22;45570;48.782;8.332;2022-12-29T13:48:48;13.40;99.90
59703;DHT22;45570;48.782;8.332;2022-12-29T13:51:18;13.60;99.90
59703;DHT22;45570;48.782;8.332;2022-12-29T13:54:15;13.70;99.90
59703;DHT22;45570;48.782;8.332;2022-12-29T13:56:51;13.80;99.90
59703;DHT22;45570;48.782;8.332;2022-12-29T13:59:25;13.70;99.90
59703;DHT22;45570;48.782;8.332;2022-12-29T14:02:01;13.70;99.90
59703;DHT22;45570;48.782;8.332;2022-12-29T14:04:32;13.50;99.90
59703;DHT22;45570;48.782;8.332;2022-12-29T14:07:04;13.50;99.90
59703;DHT22;45570;48.782;8.332;2022-12-29T14:09:45;13.50;99.90
59703;DHT22;45570;48.782;8.332;2022-12-29T14:12:33;13.50;99.90
59703;DHT22;45570;48.782;8.332;2022-12-29T14:18:10;13.40;99.90
59703;DHT22;45570;48.782;8.332;2022-12-29T14:20:49;13.50;99.90
59703;DHT22;45570;48.782;8.332;2022-12-29T14:23:37;13.50;99.90
59703;DHT22;45570;48.782;8.332;2022-12-29T14:26:15;13.50;99.90
59703;DHT22;45570;48.782;8.332;2022-12-29T14:28:45;13.50;99.90
59703;DHT22;45570;48.782;8.332;2022-12-29T14:31:34;13.40;99.90
59703;DHT22;45570;48.782;8.332;2022-12-29T14:34:30;13.50;99.90
59703;DHT22;45570;48.782;8.332;2022-12-29T14:37:23;13.20;99.90
59703;DHT22;45570;48.782;8.332;2022-12-29T14:40:04;12.90;99.90
59703;DHT22;45570;48.782;8.332;2022-12-29T14:42:33;12.60;99.90
59703;DHT22;45570;48.782;8.332;2022-12-29T14:45:06;12.00;99.90
59703;DHT22;45570;48.782;8.332;2022-12-29T14:47:37;11.50;99.90
59703;DHT22;45570;48.782;8.332;2022-12-29T14:50:14;11.30;99.90
59703;DHT22;45570;48.782;8.332;2022-12-29T14:52:47;11.20;99.90
59703;DHT22;45570;48.782;8.332;2022-12-29T14:55:36;11.00;99.90
59703;DHT22;45570;48.782;8.332;2022-12-29T14:58:13;10.90;99.90
59703;DHT22;45570;48.782;8.332;2022-12-29T15:00:44;10.80;99.90
59703;DHT22;45570;48.782;8.332;2022-12-29T15:03:18;10.80;99.90
59703;DHT22;45570;48.782;8.332;2022-12-29T15:05:52;10.60;99.90
59703;DHT22;45570;48.782;8.332;2022-12-29T15:08:24;10.50;99.90
59703;DHT22;45570;48.782;8.332;2022-12-29T15:10:56;10.40;99.90
59703;DHT22;45570;48.782;8.332;2022-12-29T15:13:34;10.30;99.90
59703;DHT22;45570;48.782;8.332;2022-12-29T15:16:02;10.30;99.90
59703;DHT22;45570;48.782;8.332;2022-12-29T15:18:32;10.30;99.90
59703;DHT22;45570;48.782;8.332;2022-12-29T15:21:05;10.30;99.90
59703;DHT22;45570;48.782;8.332;2022-12-29T15:23:35;10.20;99.90
59703;DHT22;45570;48.782;8.332;2022-12-29T15:26:06;10.20;99.90
59703;DHT22;45570;48.782;8.332;2022-12-29T15:28:40;10.20;99.90
59703;DHT22;45570;48.782;8.332;2022-12-29T15:31:12;10.20;99.90
59703;DHT22;45570;48.782;8.332;2022-12-29T15:33:42;10.20;99.90
59703;DHT22;45570;48.782;8.332;2022-12-29T15:36:14;10.00;99.90
59703;DHT22;45570;48.782;8.332;2022-12-29T15:38:46;9.90;99.90
59703;DHT22;45570;48.782;8.332;2022-12-29T15:41:26;9.90;99.90
59703;DHT22;45570;48.782;8.332;2022-12-29T15:44:06;9.80;99.90
59703;DHT22;45570;48.782;8.332;2022-12-29T15:46:37;9.80;99.90
59703;DHT22;45570;48.782;8.332;2022-12-29T15:49:07;9.80;99.90
59703;DHT22;45570;48.782;8.332;2022-12-29T15:51:39;9.90;99.90
59703;DHT22;45570;48.782;8.332;2022-12-29T15:54:15;9.90;99.90
59703;DHT22;45570;48.782;8.332;2022-12-29T15:56:46;10.00;99.90
59703;DHT22;45570;48.782;8.332;2022-12-29T15:59:24;9.90;99.90
59703;DHT22;45570;48.782;8.332;2022-12-29T16:01:54;10.00;99.90
59703;DHT22;45570;48.782;8.332;2022-12-29T16:04:24;9.90;99.90
59703;DHT22;45570;48.782;8.332;2022-12-29T16:06:58;10.00;99.90
59703;DHT22;45570;48.782;8.332;2022-12-29T16:09:31;10.00;99.90
59703;DHT22;45570;48.782;8.332;2022-12-29T16:12:02;10.00;99.90
59703;DHT22;45570;48.782;8.332;2022-12-29T16:14:34;10.00;99.90
59703;DHT22;45570;48.782;8.332;2022-12-29T16:17:05;10.00;99.90
59703;DHT22;45570;48.782;8.332;2022-12-29T16:19:36;10.00;99.90
59703;DHT22;45570;48.782;8.332;2022-12-29T16:22:12;9.90;99.90
59703;DHT22;45570;48.782;8.332;2022-12-29T16:24:45;9.80;99.90
59703;DHT22;45570;48.782;8.332;2022-12-29T16:27:20;9.90;99.90
59703;DHT22;45570;48.782;8.332;2022-12-29T16:29:52;9.90;99.90
59703;DHT22;45570;48.782;8.332;2022-12-29T16:32:25;9.80;99.90
59703;DHT22;45570;48.782;8.332;2022-12-29T16:35:09;9.80;99.90
59703;DHT22;45570;48.782;8.332;2022-12-29T16:37:40;9.90;99.90
59703;DHT22;45570;48.782;8.332;2022-12-29T16:40:27;9.80;99.90
59703;DHT22;45570;48.782;8.332;2022-12-29T16:42:59;9.80;99.90
59703;DHT22;45570;48.782;8.332;2022-12-29T16:46:17;10.00;99.90
59703;DHT22;45570;48.782;8.332;2022-12-29T16:48:48;10.10;99.90
59703;DHT22;45570;48.782;8.332;2022-12-29T16:51:23;10.30;99.90
59703;DHT22;45570;48.782;8.332;2022-12-29T16:53:59;10.20;99.90
59703;DHT22;45570;48.782;8.332;2022-12-29T16:56:30;10.10;99.90
59703;DHT22;45570;48.782;8.332;2022-12-29T16:59:03;10.10;99.90
